createdAt,value
2019-04-01T00:01:38.292Z,68.73
2019-04-01T00:06:37.229Z,69.08
2019-04-01T00:11:37.139Z,69.62
2019-04-01T00:16:37.140Z,70.07
2019-04-01T00:21:36.769Z,69.35
2019-04-01T00:26:35.555Z,70.19
2019-04-01T00:31:34.541Z,69.88
2019-04-01T00:36:35.386Z,70.25
2019-04-01T00:41:34.228Z,70.81
2019-04-01T00:46:35.197Z,70.57
2019-04-01T00:51:35.135Z,71.49
2019-04-01T00:56:34.556Z,70.36
2019-04-01T01:01:35.376Z,71.68
2019-04-01T01:06:35.302Z,70.49
2019-04-01T01:11:35.152Z,70.26
2019-04-01T01:16:35.432Z,70.91
2019-04-01T01:21:35.201Z,72.56
2019-04-01T01:26:34.576Z,72.61
2019-04-01T01:31:33.243Z,71.81
2019-04-01T01:36:32.182Z,72.44
2019-04-01T01:41:31.540Z,73.82
2019-04-01T01:46:31.391Z,74.85
2019-04-01T01:51:30.826Z,73.89
2019-04-01T01:56:30.227Z,73.14
2019-04-01T02:01:30.222Z,75.91
2019-04-01T02:06:29.433Z,74.82
2019-04-01T02:11:28.659Z,73.67
2019-04-01T02:16:27.458Z,73.58
2019-04-01T02:21:27.214Z,75.80
2019-04-01T02:26:26.331Z,74.90
2019-04-01T02:31:26.247Z,75.39
2019-04-01T02:36:26.257Z,75.73
2019-04-01T02:41:26.541Z,79.63
2019-04-01T02:46:25.755Z,80.47
2019-04-01T02:51:26.524Z,79.76
2019-04-01T02:56:26.466Z,78.24
2019-04-01T03:01:25.352Z,80.69
2019-04-01T03:06:25.239Z,80.67
2019-04-01T03:11:25.589Z,81.45
2019-04-01T03:16:25.516Z,80.94
2019-04-01T03:21:25.232Z,80.10
2019-04-01T03:26:25.520Z,79.89
2019-04-01T03:31:24.492Z,79.61
2019-04-01T03:36:24.503Z,79.60
2019-04-01T03:41:24.222Z,79.49
2019-04-01T03:46:24.260Z,79.45
2019-04-01T03:51:23.447Z,82.10
2019-04-01T03:56:22.330Z,79.96
2019-04-01T04:01:22.314Z,80.09
2019-04-01T04:06:21.272Z,80.04
2019-04-01T04:11:21.382Z,79.66
2019-04-01T04:16:21.320Z,79.38
2019-04-01T04:21:23.774Z,79.70
2019-04-01T04:26:20.340Z,79.30
2019-04-01T04:31:19.532Z,80.26
2019-04-01T04:36:18.754Z,79.60
2019-04-01T04:41:18.491Z,79.45
2019-04-01T04:46:21.010Z,79.91
2019-04-01T04:51:18.277Z,79.09
2019-04-01T04:56:17.263Z,80.33
2019-04-01T05:01:16.705Z,82.72
2019-04-01T05:06:15.791Z,81.14
2019-04-01T05:11:16.282Z,81.26
2019-04-01T05:16:15.295Z,82.44
2019-04-01T05:21:15.487Z,82.52
2019-04-01T05:26:14.403Z,82.87
2019-04-01T05:31:14.757Z,83.09
2019-04-01T05:36:15.299Z,83.58
2019-04-01T05:41:15.312Z,83.52
2019-04-01T05:46:16.373Z,84.05
2019-04-01T05:51:15.715Z,82.51
2019-04-01T05:56:15.382Z,81.46
2019-04-01T06:01:14.830Z,81.58
2019-04-01T06:06:14.388Z,81.12
2019-04-01T06:11:15.417Z,80.14
2019-04-01T06:16:14.538Z,80.24
2019-04-01T06:21:13.323Z,80.20
2019-04-01T06:26:12.636Z,78.10
2019-04-01T06:31:11.330Z,77.72
2019-04-01T06:36:11.378Z,77.79
2019-04-01T06:41:12.423Z,76.44
2019-04-01T06:46:11.505Z,76.84
2019-04-01T06:51:10.519Z,76.27
2019-04-01T06:56:09.746Z,76.69
2019-04-01T07:01:08.786Z,76.21
2019-04-01T07:06:08.375Z,74.12
2019-04-01T07:11:07.472Z,72.98
2019-04-01T07:16:15.389Z,74.69
2019-04-01T07:21:07.392Z,72.19
2019-04-01T07:26:06.496Z,73.45
2019-04-01T07:31:06.423Z,73.61
2019-04-01T07:36:05.758Z,70.29
2019-04-01T07:41:05.544Z,71.69
2019-04-01T07:46:07.918Z,71.30
2019-04-01T07:51:07.022Z,69.02
2019-04-01T07:56:05.562Z,68.24
2019-04-01T08:01:06.458Z,68.57
2019-04-01T08:06:06.339Z,69.35
2019-04-01T08:11:06.305Z,67.52
2019-04-01T08:16:06.318Z,67.13
2019-04-01T08:21:05.324Z,63.66
2019-04-01T08:26:05.331Z,64.18
2019-04-01T08:31:04.565Z,63.59
2019-04-01T08:36:03.268Z,62.28
2019-04-01T08:41:02.546Z,63.80
2019-04-01T08:46:01.605Z,62.16
2019-04-01T08:51:00.330Z,63.32
2019-04-01T08:56:01.214Z,62.58
2019-04-01T09:01:00.354Z,62.44
2019-04-01T09:06:00.396Z,60.78
2019-04-01T09:10:59.744Z,61.64
2019-04-01T09:15:59.363Z,61.23
2019-04-01T09:20:59.275Z,59.50
2019-04-01T09:25:59.345Z,60.14
2019-04-01T09:30:59.296Z,60.50
2019-04-01T09:35:58.422Z,59.09
2019-04-01T09:40:59.347Z,58.46
2019-04-01T09:45:59.488Z,60.33
2019-04-01T09:50:58.299Z,59.73
2019-04-01T09:55:57.749Z,60.24
2019-04-01T10:00:57.317Z,58.39
2019-04-01T10:05:57.313Z,58.47
2019-04-01T10:10:57.339Z,56.47
2019-04-01T10:15:56.305Z,57.92
2019-04-01T10:20:55.651Z,54.02
2019-04-01T10:25:54.315Z,55.99
2019-04-01T10:30:53.794Z,56.30
2019-04-01T10:35:52.290Z,54.75
2019-04-01T10:40:52.276Z,56.33
2019-04-01T10:50:51.563Z,54.27
2019-04-01T10:55:52.298Z,54.79
2019-04-01T11:00:51.875Z,53.16
2019-04-01T11:05:51.372Z,55.00
2019-04-01T11:10:51.380Z,53.16
2019-04-01T11:15:51.659Z,51.89
2019-04-01T11:20:50.399Z,53.26
2019-04-01T11:25:50.365Z,53.23
2019-04-01T11:30:51.368Z,55.59
2019-04-01T11:35:51.479Z,52.24
2019-04-01T11:40:50.855Z,51.93
2019-04-01T11:45:51.380Z,51.36
2019-04-01T11:50:50.363Z,52.27
2019-04-01T11:55:49.556Z,52.05
2019-04-01T12:00:50.433Z,48.66
2019-04-01T12:05:50.428Z,51.00
2019-04-01T12:10:50.357Z,51.40
2019-04-01T12:15:50.378Z,51.40
2019-04-01T12:20:50.430Z,50.27
2019-04-01T12:25:50.393Z,50.28
2019-04-01T12:30:49.340Z,51.80
2019-04-01T12:35:49.798Z,48.37
2019-04-01T12:40:49.324Z,50.19
2019-04-01T12:45:49.289Z,48.60
2019-04-01T12:50:48.998Z,50.59
2019-04-01T12:55:47.704Z,49.12
2019-04-01T13:00:46.572Z,49.55
2019-04-01T13:05:46.329Z,48.09
2019-04-01T13:10:45.377Z,48.50
2019-04-01T13:20:45.293Z,49.48
2019-04-01T13:25:45.498Z,51.13
2019-04-01T13:30:44.343Z,49.05
2019-04-01T13:35:44.290Z,50.59
2019-04-01T13:40:44.440Z,48.29
2019-04-01T13:45:43.303Z,47.53
2019-04-01T13:50:42.274Z,46.39
2019-04-01T13:55:43.266Z,46.94
2019-04-01T14:00:42.363Z,47.36
2019-04-01T14:05:43.297Z,49.40
2019-04-01T14:10:42.441Z,48.28
2019-04-01T14:15:42.303Z,51.61
2019-04-01T14:20:42.304Z,50.16
2019-04-01T14:25:43.040Z,49.49
2019-04-01T14:30:41.499Z,48.46
2019-04-01T14:35:40.321Z,47.25
2019-04-01T14:40:40.276Z,47.94
2019-04-01T14:45:39.628Z,45.84
2019-04-01T14:50:38.335Z,47.55
2019-04-01T14:55:38.377Z,48.48
2019-04-01T15:00:38.310Z,49.67
2019-04-01T15:05:37.310Z,48.63
2019-04-01T15:15:37.630Z,46.94
2019-04-01T15:20:37.293Z,47.77
2019-04-01T15:25:37.358Z,46.81
2019-04-01T15:30:37.310Z,48.09
2019-04-01T15:35:36.418Z,48.07
2019-04-01T15:40:36.297Z,49.24
2019-04-01T15:45:36.272Z,47.38
2019-04-01T15:50:38.291Z,46.96
2019-04-01T15:55:37.308Z,48.06
2019-04-01T16:00:38.314Z,47.83
2019-04-01T16:05:38.517Z,48.64
2019-04-01T16:10:37.511Z,46.73
2019-04-01T16:15:38.375Z,45.22
2019-04-01T16:20:37.306Z,45.60
2019-04-01T16:25:37.703Z,45.15
2019-04-01T16:30:36.319Z,44.61
2019-04-01T16:35:36.277Z,45.98
2019-04-01T16:40:36.246Z,47.46
2019-04-01T16:45:35.305Z,47.55
2019-04-01T16:50:34.370Z,46.78
2019-04-01T16:55:34.312Z,48.47
2019-04-01T17:00:34.269Z,50.28
2019-04-01T17:05:33.292Z,49.30
2019-04-01T17:10:33.547Z,49.45
2019-04-01T17:15:33.282Z,50.87
2019-04-01T17:20:32.540Z,50.32
2019-04-01T17:25:32.254Z,49.07
2019-04-01T17:30:32.421Z,48.24
2019-04-01T17:35:32.308Z,50.24
2019-04-01T17:40:32.249Z,52.07
2019-04-01T17:45:31.472Z,52.84
2019-04-01T17:50:31.300Z,52.46
2019-04-01T17:55:31.248Z,50.85
2019-04-01T18:00:30.296Z,52.50
2019-04-01T18:05:30.229Z,52.27
2019-04-01T18:10:29.283Z,52.02
2019-04-01T18:15:29.269Z,53.17
2019-04-01T18:20:28.224Z,55.82
2019-04-01T18:25:27.264Z,57.29
2019-04-01T18:30:27.266Z,60.03
2019-04-01T18:35:27.265Z,60.57
2019-04-01T18:40:33.029Z,62.76
2019-04-01T18:45:26.283Z,62.67
2019-04-01T18:50:25.383Z,65.10
2019-04-01T18:55:25.301Z,64.05
2019-04-01T19:00:25.303Z,66.11
2019-04-01T19:05:24.602Z,67.16
2019-04-01T19:10:24.296Z,67.22
2019-04-01T19:15:23.869Z,67.33
2019-04-01T19:20:23.260Z,68.36
2019-04-01T19:25:23.397Z,69.07
2019-04-01T19:30:23.307Z,69.23
2019-04-01T19:35:22.284Z,69.43
2019-04-01T19:40:23.163Z,70.39
2019-04-01T19:45:21.626Z,70.61
2019-04-01T19:50:22.256Z,70.55
2019-04-01T19:55:23.461Z,70.74
2019-04-01T20:00:27.952Z,72.53
2019-04-01T20:05:22.526Z,71.71
2019-04-01T20:10:22.344Z,73.57
2019-04-01T20:15:21.274Z,73.89
2019-04-01T20:20:21.270Z,74.43
2019-04-01T20:25:21.381Z,74.35
2019-04-01T20:30:20.455Z,74.05
2019-04-01T20:35:23.739Z,74.42
2019-04-01T20:40:19.743Z,75.09
2019-04-01T20:45:19.265Z,74.64
2019-04-01T20:50:20.342Z,75.33
2019-04-01T20:55:20.507Z,75.80
2019-04-01T21:00:20.384Z,76.65
2019-04-01T21:05:19.892Z,76.31
2019-04-01T21:10:20.447Z,76.03
2019-04-01T21:15:19.410Z,76.24
2019-04-01T21:20:18.779Z,76.80
2019-04-01T21:25:17.384Z,77.44
2019-04-01T21:30:16.319Z,77.29
2019-04-01T21:35:15.303Z,77.74
2019-04-01T21:40:14.713Z,77.56
2019-04-01T21:45:16.040Z,76.77
2019-04-01T21:50:14.489Z,78.59
2019-04-01T21:55:14.409Z,79.96
2019-04-01T22:00:17.867Z,79.50
2019-04-01T22:05:14.297Z,79.96
2019-04-01T22:10:14.393Z,80.05
2019-04-01T22:15:15.286Z,81.15
2019-04-01T22:20:16.564Z,81.56
2019-04-01T22:25:16.329Z,82.57
2019-04-01T22:30:17.107Z,80.69
2019-04-01T22:35:15.478Z,81.15
2019-04-01T22:40:14.595Z,82.01
2019-04-01T22:45:15.485Z,82.33
2019-04-01T22:50:16.325Z,83.28
2019-04-01T22:55:17.528Z,82.61
2019-04-01T23:00:18.586Z,82.63
2019-04-01T23:05:18.318Z,80.35
2019-04-01T23:10:18.330Z,82.78
2019-04-01T23:15:18.313Z,82.70
2019-04-01T23:20:17.391Z,83.12
2019-04-01T23:25:17.303Z,82.97
2019-04-01T23:30:16.355Z,84.19
2019-04-01T23:35:15.339Z,82.84
2019-04-01T23:40:14.363Z,83.23
2019-04-01T23:45:15.738Z,83.45
2019-04-01T23:50:14.433Z,83.27
2019-04-01T23:55:13.575Z,82.66
